Time;durP1;ratioP1;P1;durP2;ratioP2;P2;SDS_P1;SDS_P2;PMS_P1;PMS_P2;Temp;Humidity;BMP_temperature;BMP_pressure;BME280_temperature;BME280_humidity;BME280_pressure;Samples;Min_cycle;Max_cycle;Signal;HPM_P1;HPM_P2
2021/10/18 00:02:21;;;;;;;33.67;18.67;;;;;;;8.36;78.13;101060.63;1715620;81;25729;-83
2021/10/18 00:04:48;;;;;;;33.28;19.05;;;;;;;8.36;78.14;101059.29;1736230;81;25706;-83
2021/10/18 00:07:15;;;;;;;31.57;18.45;;;;;;;8.39;78.14;101060.31;1682845;81;27569;-84
2021/10/18 00:09:42;;;;;;;31.15;17.77;;;;;;;8.40;78.17;101060.64;1662980;84;25887;-84
2021/10/18 00:12:10;;;;;;;27.20;17.77;;;;;;;8.42;78.20;101062.67;1704862;83;25800;-83
2021/10/18 00:14:37;;;;;;;29.92;19.67;;;;;;;8.43;78.16;101058.15;1691457;81;25936;-83
2021/10/18 00:17:04;;;;;;;27.02;17.25;;;;;;;8.42;78.19;101068.02;1628770;85;25971;-83
2021/10/18 00:19:31;;;;;;;31.23;18.48;;;;;;;8.41;78.22;101061.48;1638454;84;28177;-84
2021/10/18 00:21:58;;;;;;;27.87;15.95;;;;;;;8.40;78.23;101064.64;1665262;84;25938;-84
2021/10/18 00:24:25;;;;;;;32.48;16.93;;;;;;;8.41;78.41;101069.00;1659380;85;25796;-83
2021/10/18 00:26:52;;;;;;;28.25;16.10;;;;;;;8.42;78.50;101063.17;1627135;84;25843;-83
2021/10/18 00:29:19;;;;;;;28.27;18.17;;;;;;;8.42;78.49;101064.02;1631253;84;26048;-84
2021/10/18 00:31:47;;;;;;;29.00;16.37;;;;;;;8.44;78.42;101057.16;1629801;84;28235;-83
2021/10/18 00:34:14;;;;;;;27.17;17.55;;;;;;;8.45;78.68;101066.34;1691049;84;25904;-83
2021/10/18 00:36:40;;;;;;;29.02;18.00;;;;;;;8.46;78.62;101062.69;1630404;85;25893;-83
2021/10/18 00:39:07;;;;;;;33.67;18.20;;;;;;;8.49;78.67;101057.50;1630844;84;26403;-83
2021/10/18 00:41:35;;;;;;;33.85;19.00;;;;;;;8.51;78.67;101065.69;1717594;82;25853;-83
2021/10/18 00:44:01;;;;;;;28.57;17.07;;;;;;;8.52;78.65;101067.37;1728801;81;28141;-83
2021/10/18 00:46:29;;;;;;;26.52;18.25;;;;;;;8.53;78.79;101064.21;1635431;84;25857;-83
2021/10/18 00:48:56;;;;;;;29.60;18.35;;;;;;;8.54;78.78;101061.38;1677093;83;25878;-83
2021/10/18 00:51:26;;;;;;;33.48;17.87;;;;;;;8.54;78.87;101057.86;1676699;84;26360;-83
2021/10/18 00:53:56;;;;;;;40.58;19.05;;;;;;;8.56;78.87;101061.20;1703362;83;26522;-84
2021/10/18 00:56:24;;;;;;;34.98;19.00;;;;;;;8.58;78.92;101060.53;1657098;84;27587;-83
2021/10/18 00:58:52;;;;;;;34.03;19.02;;;;;;;8.60;78.91;101064.41;1617345;83;25906;-83
2021/10/18 01:01:20;;;;;;;35.25;19.00;;;;;;;8.61;78.96;101066.05;1681919;82;25872;-83
2021/10/18 01:03:48;;;;;;;32.00;19.32;;;;;;;8.63;79.02;101068.06;1706626;83;25861;-83
2021/10/18 01:06:15;;;;;;;30.45;19.23;;;;;;;8.64;79.07;101068.41;1663602;83;26056;-84
2021/10/18 01:08:42;;;;;;;38.00;18.70;;;;;;;8.64;79.03;101067.08;1677869;84;27636;-83
2021/10/18 01:11:09;;;;;;;37.15;18.23;;;;;;;8.65;79.13;101072.25;1679729;84;26634;-83
2021/10/18 01:13:37;;;;;;;33.45;19.48;;;;;;;8.64;79.15;101070.56;1708278;83;25779;-84
2021/10/18 01:16:07;;;;;;;29.02;18.95;;;;;;;8.63;79.15;101069.39;1658270;83;25908;-83
2021/10/18 01:18:34;;;;;;;33.40;19.00;;;;;;;8.63;79.12;101070.23;1623376;84;25803;-84
2021/10/18 01:21:02;;;;;;;34.67;19.90;;;;;;;8.64;79.21;101072.42;1657084;84;27564;-83
2021/10/18 01:23:29;;;;;;;34.78;20.20;;;;;;;8.61;79.20;101068.23;1696534;83;26378;-83
2021/10/18 01:25:56;;;;;;;35.70;20.20;;;;;;;8.61;79.25;101068.23;1665533;84;25909;-84
2021/10/18 01:28:23;;;;;;;34.30;19.85;;;;;;;8.62;79.23;101063.73;1653348;84;26433;-84
2021/10/18 01:30:50;;;;;;;34.60;20.43;;;;;;;8.61;79.18;101068.72;1692952;84;25965;-83
2021/10/18 01:33:18;;;;;;;32.53;19.12;;;;;;;8.60;79.20;101065.21;1698660;83;27571;-84
2021/10/18 01:35:46;;;;;;;39.38;20.92;;;;;;;8.60;79.21;101065.21;1706415;83;25958;-84
2021/10/18 01:38:13;;;;;;;34.80;19.35;;;;;;;8.60;79.18;101069.22;1659611;83;25863;-84
2021/10/18 01:40:40;;;;;;;33.88;19.35;;;;;;;8.60;79.21;101067.87;1678966;83;25833;-83
2021/10/18 01:43:07;;;;;;;35.98;20.05;;;;;;;8.58;79.15;101071.22;1682833;83;25374;-83
2021/10/18 01:45:34;;;;;;;32.83;19.20;;;;;;;8.56;79.18;101077.22;1667318;84;27578;-83
2021/10/18 01:48:01;;;;;;;36.45;20.72;;;;;;;8.50;79.25;101070.70;1653353;84;25799;-83
2021/10/18 01:50:29;;;;;;;32.67;19.32;;;;;;;8.48;79.29;101066.52;1724567;80;25825;-84
2021/10/18 01:52:56;;;;;;;31.37;19.27;;;;;;;8.46;79.39;101071.19;1728965;81;26402;-84
2021/10/18 01:55:23;;;;;;;40.08;21.17;;;;;;;8.46;79.53;101075.19;1723479;82;25916;-83
2021/10/18 01:57:51;;;;;;;43.05;21.55;;;;;;;8.44;79.55;101071.84;1653007;83;28476;-83
2021/10/18 02:00:19;;;;;;;36.58;20.02;;;;;;;8.46;79.65;101068.03;1676187;83;26239;-84
2021/10/18 02:02:46;;;;;;;36.55;20.57;;;;;;;8.47;79.58;101075.02;1726539;82;25832;-83
2021/10/18 02:05:15;;;;;;;35.52;21.85;;;;;;;8.47;79.69;101072.84;1693554;81;25877;-83
2021/10/18 02:07:42;;;;;;;36.63;20.80;;;;;;;8.45;79.71;101078.35;1689406;82;25384;-83
2021/10/18 02:10:10;;;;;;;39.83;20.88;;;;;;;8.45;79.78;101079.69;1716027;81;27638;-83
2021/10/18 02:12:39;;;;;;;31.27;19.62;;;;;;;8.41;79.81;101084.17;1731898;81;25886;-83
2021/10/18 02:15:08;;;;;;;36.20;20.90;;;;;;;8.37;80.13;101078.33;1694314;82;25919;-83
2021/10/18 02:17:35;;;;;;;31.05;19.73;;;;;;;8.35;80.21;101080.33;1690437;82;26398;-83
2021/10/18 02:20:05;;;;;;;33.88;19.87;;;;;;;8.35;80.27;101079.48;1714112;81;26198;-83
2021/10/18 02:22:32;;;;;;;38.45;20.75;;;;;;;8.36;80.31;101075.83;1729378;81;27463;-84
2021/10/18 02:24:59;;;;;;;35.75;19.82;;;;;;;8.37;80.54;101083.67;1704217;80;25940;-83
2021/10/18 02:27:26;;;;;;;29.27;18.85;;;;;;;8.37;80.63;101072.14;1727025;80;26415;-83
2021/10/18 02:29:53;;;;;;;33.05;19.10;;;;;;;8.37;80.79;101077.48;1734044;80;26454;-83
2021/10/18 02:32:20;;;;;;;33.55;20.40;;;;;;;8.37;80.88;101076.99;1729658;82;25775;-83
2021/10/18 02:34:47;;;;;;;34.18;20.45;;;;;;;8.38;80.82;101072.50;1678175;82;27629;-83
2021/10/18 02:37:15;;;;;;;39.78;20.90;;;;;;;8.39;80.86;101075.48;1695044;83;26130;-84
2021/10/18 02:39:43;;;;;;;37.42;22.00;;;;;;;8.39;80.88;101076.83;1727231;81;25352;-83
2021/10/18 02:42:10;;;;;;;35.88;24.63;;;;;;;8.35;80.98;101072.81;1748023;80;25766;-83
2021/10/18 02:44:37;;;;;;;34.92;22.62;;;;;;;8.33;81.00;101076.14;1709903;82;26642;-83
2021/10/18 02:47:07;;;;;;;41.18;22.98;;;;;;;8.32;81.11;101084.64;1685622;81;27487;-83
2021/10/18 02:49:35;;;;;;;40.60;24.57;;;;;;;8.31;81.30;101080.80;1673937;83;25913;-84
2021/10/18 02:52:03;;;;;;;36.73;22.05;;;;;;;8.30;81.39;101088.45;1694258;82;25815;-84
2021/10/18 02:54:30;;;;;;;36.48;20.23;;;;;;;8.29;81.50;101086.80;1722702;82;26458;-83
2021/10/18 02:56:57;;;;;;;39.10;21.70;;;;;;;8.29;81.60;101090.31;1663451;84;25927;-84
2021/10/18 02:59:24;;;;;;;31.82;17.37;;;;;;;8.29;81.72;101087.64;1648031;84;28222;-83
2021/10/18 03:01:51;;;;;;;34.30;20.43;;;;;;;8.28;82.04;101090.45;1704051;82;25976;-83
2021/10/18 03:04:20;;;;;;;34.95;19.17;;;;;;;8.25;81.88;101090.30;1718496;83;25890;-83
2021/10/18 03:06:48;;;;;;;37.20;20.05;;;;;;;8.27;82.03;101092.80;1663745;84;26396;-83
2021/10/18 03:09:16;;;;;;;37.58;20.45;;;;;;;8.29;82.21;101093.47;1724781;82;25843;-83
2021/10/18 03:11:43;;;;;;;36.08;20.00;;;;;;;8.28;82.25;101091.30;1699970;83;28307;-84
2021/10/18 03:14:10;;;;;;;34.45;18.98;;;;;;;8.29;82.30;101088.98;1718576;82;25924;-83
2021/10/18 03:16:37;;;;;;;30.95;18.82;;;;;;;8.28;82.39;101087.29;1666007;82;25900;-84
2021/10/18 03:19:04;;;;;;;32.88;18.45;;;;;;;8.29;82.65;101088.98;1667436;83;25841;-83
2021/10/18 03:21:31;;;;;;;32.20;18.15;;;;;;;8.28;82.75;101091.30;1716649;82;25860;-83
2021/10/18 03:23:58;;;;;;;37.25;18.40;;;;;;;8.28;83.07;101099.79;1717243;82;27621;-83
2021/10/18 03:26:25;;;;;;;29.82;18.55;;;;;;;8.26;82.85;101099.12;1669106;83;26532;-82
2021/10/18 03:28:52;;;;;;;33.98;19.45;;;;;;;8.26;83.08;101101.30;1692726;83;26046;-83
2021/10/18 03:31:19;;;;;;;30.72;17.70;;;;;;;8.25;83.08;101106.77;1714009;83;26565;-84
2021/10/18 03:33:46;;;;;;;32.05;18.77;;;;;;;8.24;83.09;101110.42;1717419;82;25877;-83
2021/10/18 03:36:13;;;;;;;33.53;17.55;;;;;;;8.25;83.14;101112.98;1662321;83;28686;-84
2021/10/18 03:38:40;;;;;;;30.85;17.50;;;;;;;8.26;83.16;101119.98;1693312;83;25350;-83
2021/10/18 03:41:07;;;;;;;32.80;18.30;;;;;;;8.27;83.21;101119.48;1718541;83;25784;-83
2021/10/18 03:43:34;;;;;;;32.25;16.75;;;;;;;8.26;83.30;101115.97;1723356;82;26187;-83
2021/10/18 03:46:01;;;;;;;31.65;18.07;;;;;;;8.24;83.52;101119.27;1669409;83;25545;-83
2021/10/18 03:48:28;;;;;;;25.75;16.35;;;;;;;8.24;83.57;101121.09;1705005;80;27147;-83
2021/10/18 03:50:56;;;;;;;30.70;18.35;;;;;;;8.25;83.65;101121.45;1654546;84;25950;-83
2021/10/18 03:53:23;;;;;;;33.18;18.25;;;;;;;8.24;83.71;101128.61;1736659;81;25853;-83
2021/10/18 03:55:51;;;;;;;36.08;18.40;;;;;;;8.25;83.86;101126.33;1690977;82;26375;-83
2021/10/18 03:58:18;;;;;;;28.57;16.93;;;;;;;8.25;83.86;101131.66;1671055;83;26028;-84
2021/10/18 04:00:45;;;;;;;29.23;17.52;;;;;;;8.26;83.95;101131.98;1719628;82;27655;-83
2021/10/18 04:03:12;;;;;;;28.10;16.55;;;;;;;8.27;84.10;101132.83;1715321;82;25839;-83
2021/10/18 04:05:38;;;;;;;28.30;18.00;;;;;;;8.27;84.19;101136.83;1643270;84;25888;-83
2021/10/18 04:08:06;;;;;;;31.52;17.65;;;;;;;8.27;84.24;101139.02;1704113;82;25811;-83
2021/10/18 04:10:33;;;;;;;27.98;16.50;;;;;;;8.27;84.31;101141.68;1700716;83;25892;-84
2021/10/18 04:13:01;;;;;;;30.92;17.20;;;;;;;8.28;84.32;101147.34;1739964;81;27460;-84
2021/10/18 04:15:28;;;;;;;33.92;16.70;;;;;;;8.29;84.20;101148.19;1692001;81;25954;-83
2021/10/18 04:17:55;;;;;;;29.15;16.45;;;;;;;8.30;84.25;101148.02;1686748;83;25408;-83
2021/10/18 04:20:22;;;;;;;36.13;18.52;;;;;;;8.29;84.33;101146.36;1707667;83;26431;-84
2021/10/18 04:22:49;;;;;;;31.52;17.57;;;;;;;8.29;84.30;101144.18;1735649;81;25291;-84
2021/10/18 04:25:16;;;;;;;32.08;16.90;;;;;;;8.30;84.29;101148.02;1645774;82;28037;-84
2021/10/18 04:27:44;;;;;;;30.55;16.70;;;;;;;8.31;84.38;101140.86;1673727;82;25622;-84
2021/10/18 04:30:11;;;;;;;30.70;18.70;;;;;;;8.29;84.36;101141.02;1735631;82;26081;-85
2021/10/18 04:32:38;;;;;;;34.78;16.60;;;;;;;8.28;84.36;101148.67;1715778;82;26414;-84
2021/10/18 04:35:07;;;;;;;30.40;16.80;;;;;;;8.29;84.44;101145.52;1695831;83;25936;-84
2021/10/18 04:37:34;;;;;;;30.97;16.90;;;;;;;8.29;84.48;101145.03;1691442;83;28313;-84
2021/10/18 04:40:04;;;;;;;29.67;16.75;;;;;;;8.28;84.49;101146.01;1683537;81;43782;-85
2021/10/18 04:42:31;;;;;;;29.82;17.07;;;;;;;8.28;84.50;101147.83;1745060;81;25891;-84
2021/10/18 04:44:58;;;;;;;28.70;16.45;;;;;;;8.29;84.40;101156.19;1687680;84;26639;-84
2021/10/18 04:47:25;;;;;;;30.12;17.15;;;;;;;8.30;84.36;101160.52;1683184;82;26013;-84
2021/10/18 04:49:52;;;;;;;33.70;17.95;;;;;;;8.27;84.47;101168.38;1759139;80;27673;-84
2021/10/18 04:52:19;;;;;;;26.90;16.25;;;;;;;8.23;84.43;101169.63;1763276;80;26454;-84
2021/10/18 04:54:46;;;;;;;34.60;17.17;;;;;;;8.21;84.61;101170.80;1725945;80;25874;-83
2021/10/18 04:57:13;;;;;;;30.27;17.10;;;;;;;8.19;84.63;101167.45;1653677;82;26528;-84
2021/10/18 04:59:40;;;;;;;33.53;16.15;;;;;;;8.16;84.45;101167.27;1704822;80;25915;-84
2021/10/18 05:02:07;;;;;;;26.60;16.45;;;;;;;8.17;84.67;101168.92;1762613;80;28338;-84
2021/10/18 05:04:34;;;;;;;28.02;16.55;;;;;;;8.18;84.54;101179.11;1682422;83;26308;-84
2021/10/18 05:07:01;;;;;;;27.07;17.45;;;;;;;8.17;84.77;101180.12;1678378;81;25981;-84
2021/10/18 05:09:28;;;;;;;32.70;19.62;;;;;;;8.15;84.65;101181.59;1677529;84;26148;-84
2021/10/18 05:11:55;;;;;;;29.50;18.95;;;;;;;8.17;84.67;101186.27;1746368;80;26134;-84
2021/10/18 05:14:22;;;;;;;26.45;15.72;;;;;;;8.16;84.78;101186.43;1711759;82;28285;-84
2021/10/18 05:16:52;;;;;;;25.85;15.48;;;;;;;8.14;84.64;101187.09;1676422;82;25886;-84
2021/10/18 05:19:18;;;;;;;32.13;17.02;;;;;;;8.10;84.75;101185.24;1704807;83;25332;-84
2021/10/18 05:21:45;;;;;;;28.30;15.48;;;;;;;8.05;84.94;101188.86;1732987;81;25808;-83
2021/10/18 05:24:12;;;;;;;29.37;15.83;;;;;;;8.01;84.96;101188.84;1713370;81;25877;-84
2021/10/18 05:26:39;;;;;;;34.63;18.57;;;;;;;7.97;85.06;101188.81;1660911;81;27585;-84
2021/10/18 05:29:06;;;;;;;33.02;19.35;;;;;;;7.96;84.98;101195.61;1681149;81;25375;-84
2021/10/18 05:31:34;;;;;;;36.13;19.02;;;;;;;7.97;85.09;101197.30;1729769;81;25937;-83
2021/10/18 05:34:01;;;;;;;32.55;18.37;;;;;;;7.98;85.11;101205.63;1704426;81;26274;-83
2021/10/18 05:36:28;;;;;;;32.23;18.27;;;;;;;8.00;85.06;101207.16;1687626;81;26483;-84
2021/10/18 05:38:55;;;;;;;31.33;17.25;;;;;;;8.02;85.05;101215.03;1670029;82;28558;-85
2021/10/18 05:41:22;;;;;;;31.07;17.32;;;;;;;8.01;85.05;101207.52;1735037;81;25857;-84
2021/10/18 05:43:49;;;;;;;33.15;18.20;;;;;;;8.01;85.12;101208.84;1700484;81;25830;-83
2021/10/18 05:46:16;;;;;;;29.75;16.93;;;;;;;8.01;85.10;101215.52;1687218;81;25822;-84
2021/10/18 05:48:43;;;;;;;31.10;17.77;;;;;;;8.01;85.24;101220.00;1675087;84;25987;-84
2021/10/18 05:51:10;;;;;;;30.35;18.35;;;;;;;7.98;85.29;101218.48;1731565;81;27485;-84
2021/10/18 05:53:37;;;;;;;30.00;17.67;;;;;;;7.95;85.29;101225.48;1689347;81;25847;-83
2021/10/18 05:56:04;;;;;;;27.58;16.75;;;;;;;7.93;85.44;101224.80;1688944;82;25925;-84
2021/10/18 05:58:31;;;;;;;27.82;15.80;;;;;;;7.92;85.65;101228.92;1685426;82;25834;-83
2021/10/18 06:00:58;;;;;;;27.98;15.88;;;;;;;7.92;85.76;101236.93;1707377;83;25544;-83
2021/10/18 06:03:25;;;;;;;27.73;16.35;;;;;;;7.91;85.99;101241.45;1729698;82;28001;-83
2021/10/18 06:05:53;;;;;;;36.03;19.65;;;;;;;7.92;86.22;101246.27;1682089;82;26576;-83
2021/10/18 06:08:20;;;;;;;32.75;17.98;;;;;;;7.92;86.46;101247.11;1695855;83;28371;-83
2021/10/18 06:10:47;;;;;;;28.87;18.62;;;;;;;7.95;86.83;101249.97;1661820;83;26486;-83
2021/10/18 06:13:14;;;;;;;38.88;20.65;;;;;;;7.96;87.04;101251.14;1722982;81;25840;-84
2021/10/18 06:15:41;;;;;;;45.50;26.07;;;;;;;8.00;87.17;101253.84;1747017;81;28251;-83
2021/10/18 06:18:15;;;;;;;45.00;29.98;;;;;;;8.05;87.37;101260.90;1695453;83;25709;-84
2021/10/18 06:20:46;;;;;;;41.10;27.77;;;;;;;8.12;87.56;101253.12;1663662;83;25885;-83
2021/10/18 06:23:13;;;;;;;;;;;;;;;8.17;87.97;101262.31;1721845;82;26580;-83
2021/10/18 06:25:42;;;;;;;27.73;17.05;;;;;;;8.22;88.13;101267.20;1716045;82;25892;-84
2021/10/18 06:28:10;;;;;;;27.05;16.12;;;;;;;8.26;88.33;101274.77;1696351;83;27634;-84
2021/10/18 06:30:38;;;;;;;31.12;16.45;;;;;;;8.33;88.43;101278.99;1687558;83;25852;-84
2021/10/18 06:33:05;;;;;;;30.30;18.27;;;;;;;8.37;88.42;101282.53;1701711;83;26441;-83
2021/10/18 06:35:34;;;;;;;28.45;17.07;;;;;;;8.43;88.39;101280.56;1681237;82;25835;-84
2021/10/18 06:38:11;;;;;;;27.15;15.70;;;;;;;8.47;88.31;101281.93;1701511;81;25973;-83
2021/10/18 06:40:40;;;;;;;27.27;16.62;;;;;;;8.51;88.43;101286.48;1681784;82;27451;-83
2021/10/18 06:43:07;;;;;;;28.27;15.15;;;;;;;8.54;88.38;101286.15;1742407;81;26050;-83
2021/10/18 06:45:34;;;;;;;25.48;14.95;;;;;;;8.57;88.49;101288.52;1720834;81;25351;-83
2021/10/18 06:48:02;;;;;;;28.62;15.32;;;;;;;8.59;88.50;101292.36;1684152;83;25814;-84
2021/10/18 06:50:30;;;;;;;30.05;14.07;;;;;;;8.62;88.56;101290.72;1697177;82;26150;-83
2021/10/18 06:52:57;;;;;;;26.02;14.23;;;;;;;8.67;88.63;101292.40;1738261;81;28113;-84
2021/10/18 06:55:26;;;;;;;27.20;13.83;;;;;;;8.71;88.69;101297.77;1685039;84;26339;-84
2021/10/18 06:57:53;;;;;;;32.60;17.65;;;;;;;8.72;88.59;101297.63;1700841;81;26570;-84
2021/10/18 07:00:20;;;;;;;26.07;13.75;;;;;;;8.73;88.47;101302.45;1698048;83;25930;-84
2021/10/18 07:02:47;;;;;;;25.27;12.98;;;;;;;8.75;88.56;101298.63;1712327;82;25799;-83
2021/10/18 07:05:14;;;;;;;25.52;14.18;;;;;;;8.78;88.72;101306.83;1684666;82;28224;-84
2021/10/18 07:07:43;;;;;;;23.95;13.38;;;;;;;8.83;88.85;101305.87;1714621;82;25923;-84
2021/10/18 07:10:10;;;;;;;26.80;14.58;;;;;;;8.86;88.84;101310.39;1709079;81;25974;-83
2021/10/18 07:12:37;;;;;;;22.65;13.55;;;;;;;8.91;89.08;101313.92;1729440;81;26552;-84
2021/10/18 07:15:06;;;;;;;27.70;13.72;;;;;;;8.98;89.05;101323.80;1715191;81;25873;-83
2021/10/18 07:17:35;;;;;;;20.12;13.10;;;;;;;9.07;89.30;101328.20;1712182;81;27526;-83
2021/10/18 07:20:06;;;;;;;22.62;13.70;;;;;;;9.17;89.39;101324.90;1675254;81;25864;-84
2021/10/18 07:22:43;;;;;;;20.95;14.00;;;;;;;9.26;89.54;101327.95;1735757;81;25852;-84
2021/10/18 07:25:05;;;;;;;24.82;14.78;;;;;;;9.31;89.25;101331.00;1700066;82;26381;-84
2021/10/18 07:27:32;;;;;;;25.10;15.45;;;;;;;9.37;89.46;101334.03;1663694;83;25949;-84
2021/10/18 07:29:59;;;;;;;23.45;16.93;;;;;;;9.42;89.35;101329.87;1667603;82;27623;-84
2021/10/18 07:32:26;;;;;;;23.55;16.23;;;;;;;9.46;88.88;101332.55;1733950;81;25999;-84
2021/10/18 07:34:57;;;;;;;26.07;15.15;;;;;;;9.48;88.79;101336.39;1733368;81;25636;-83
2021/10/18 07:37:27;;;;;;;28.38;17.35;;;;;;;9.48;88.69;101335.90;1697802;81;26725;-84
2021/10/18 07:39:52;;;;;;;25.65;14.75;;;;;;;9.54;88.99;101339.78;1713569;81;25983;-84
2021/10/18 07:42:19;;;;;;;23.10;16.10;;;;;;;9.61;89.00;101342.13;1744438;81;27511;-84
2021/10/18 07:44:46;;;;;;;24.40;15.43;;;;;;;9.69;88.89;101339.47;1676546;82;25797;-84
2021/10/18 07:47:13;;;;;;;23.40;15.40;;;;;;;9.75;88.58;101342.86;1684960;82;25413;-83
2021/10/18 07:49:42;;;;;;;24.85;15.50;;;;;;;9.77;88.17;101338.98;1672162;83;26385;-84
2021/10/18 07:52:12;;;;;;;19.12;14.78;;;;;;;9.81;88.24;101332.34;1721703;83;25293;-84
2021/10/18 07:54:40;;;;;;;24.37;14.95;;;;;;;9.87;88.03;101338.36;1702556;83;27482;-84
2021/10/18 07:57:08;;;;;;;21.95;14.53;;;;;;;9.91;88.02;101342.38;1673435;83;25997;-84
2021/10/18 07:59:35;;;;;;;21.82;14.58;;;;;;;10.00;87.95;101349.44;1661902;83;25809;-83
2021/10/18 08:02:03;;;;;;;18.25;14.28;;;;;;;10.06;87.82;101351.45;1695847;83;25796;-83
2021/10/18 08:04:30;;;;;;;19.85;13.40;;;;;;;10.13;87.62;101349.47;1702990;82;26452;-83
2021/10/18 08:06:57;;;;;;;18.70;13.70;;;;;;;10.18;87.42;101360.00;1691664;83;27623;-83
2021/10/18 08:09:25;;;;;;;19.23;13.50;;;;;;;10.24;87.28;101361.20;1681740;83;25422;-84
2021/10/18 08:11:54;;;;;;;17.98;12.45;;;;;;;10.27;87.19;101359.02;1717532;83;25904;-84
2021/10/18 08:14:22;;;;;;;20.62;13.88;;;;;;;10.29;87.11;101357.01;1701391;82;26463;-84
2021/10/18 08:16:49;;;;;;;19.12;13.48;;;;;;;10.31;86.65;101366.23;1687354;83;26807;-84
2021/10/18 08:19:16;;;;;;;17.98;12.75;;;;;;;10.30;86.43;101366.73;1676779;82;27459;-85
2021/10/18 08:21:43;;;;;;;17.82;12.85;;;;;;;10.29;86.37;101370.40;1739259;82;25476;-83
2021/10/18 08:24:10;;;;;;;13.30;11.25;;;;;;;10.28;86.11;101366.56;1705879;82;25877;-82
2021/10/18 08:26:37;;;;;;;14.93;12.03;;;;;;;10.29;85.83;101357.50;1712240;82;25860;-84
2021/10/18 08:29:04;;;;;;;15.28;11.97;;;;;;;10.30;86.09;101369.41;1709449;82;25840;-84
2021/10/18 08:31:31;;;;;;;15.32;11.97;;;;;;;10.34;86.20;101373.42;1685973;83;28212;-83
2021/10/18 08:33:58;;;;;;;17.27;11.60;;;;;;;10.39;85.83;101377.76;1681637;82;26807;-83
2021/10/18 08:36:25;;;;;;;14.25;11.12;;;;;;;10.43;85.86;101375.11;1691929;83;25979;-83
2021/10/18 08:39:55;;;;;;;15.58;10.80;;;;;;;10.49;85.59;101373.59;1680884;82;25808;-83
2021/10/18 08:41:37;;;;;;;15.63;10.45;;;;;;;10.55;85.47;101368.91;1725936;82;25999;-84
2021/10/18 08:44:16;;;;;;;15.78;10.03;;;;;;;10.60;85.02;101370.59;1696583;82;28378;-84
2021/10/18 08:46:52;;;;;;;12.95;10.78;;;;;;;10.61;84.65;101370.41;1701867;83;25966;-83
2021/10/18 08:49:23;;;;;;;14.33;10.53;;;;;;;10.62;84.60;101377.95;1680772;81;25999;-83
2021/10/18 08:51:50;;;;;;;12.95;9.80;;;;;;;10.66;84.73;101388.66;1743343;81;25919;-83
2021/10/18 08:54:17;;;;;;;16.10;10.45;;;;;;;10.70;84.45;101381.47;1695807;81;25866;-82
2021/10/18 08:56:44;;;;;;;18.32;11.00;;;;;;;10.75;84.25;101387.66;1679081;83;28231;-82
2021/10/18 08:59:11;;;;;;;12.85;10.08;;;;;;;10.80;84.01;101386.63;1717198;81;25889;-82
2021/10/18 09:01:45;;;;;;;13.88;10.38;;;;;;;10.88;83.81;101381.28;1758719;80;25777;-83
2021/10/18 09:04:25;;;;;;;14.28;9.23;;;;;;;10.94;83.52;101386.45;1750719;80;25959;-83
2021/10/18 09:06:56;;;;;;;13.40;9.83;;;;;;;10.95;83.09;101376.08;1692649;82;26185;-83
2021/10/18 09:09:25;;;;;;;11.33;8.98;;;;;;;10.95;82.91;101374.22;1676501;83;27403;-82
2021/10/18 09:11:56;;;;;;;12.68;9.93;;;;;;;10.99;82.84;101376.08;1720442;82;25786;-83
2021/10/18 09:14:23;;;;;;;12.78;9.23;;;;;;;11.03;82.87;101379.59;1695111;83;25986;-83
2021/10/18 09:16:50;;;;;;;22.85;14.28;;;;;;;11.12;82.91;101378.53;1667607;82;26506;-82
2021/10/18 09:19:26;;;;;;;14.15;10.30;;;;;;;11.19;82.10;101370.64;1677968;82;26002;-82
2021/10/18 09:22:01;;;;;;;15.28;10.95;;;;;;;11.27;81.91;101374.67;1711814;82;27514;-83
2021/10/18 09:24:36;;;;;;;12.88;9.78;;;;;;;11.30;81.52;101372.47;1696836;83;26011;-84
2021/10/18 09:27:12;;;;;;;18.48;13.28;;;;;;;11.35;81.71;101370.11;1694557;84;25437;-83
2021/10/18 09:29:44;;;;;;;11.60;9.93;;;;;;;11.43;81.91;101371.91;1680968;83;25910;-84
2021/10/18 09:32:21;;;;;;;11.65;9.55;;;;;;;11.51;80.95;101382.11;1725586;82;25345;-83
2021/10/18 09:34:49;;;;;;;11.75;9.55;;;;;;;11.56;80.66;101381.09;1716462;82;28355;-83
2021/10/18 09:37:17;;;;;;;13.60;10.60;;;;;;;11.62;80.09;101378.20;1698385;82;25849;-84
2021/10/18 09:39:47;;;;;;;10.65;8.95;;;;;;;11.69;80.70;101373.02;1690215;82;25964;-83
2021/10/18 09:42:18;;;;;;;13.30;10.88;;;;;;;11.78;79.91;101378.18;1714814;82;25853;-84
2021/10/18 10:54:01;;;;;;;5.58;3.80;;;;;;;12.06;73.10;101389.27;1727485;82;25760;-82
2021/10/18 10:56:45;;;;;;;6.60;4.05;;;;;;;11.92;72.75;101386.81;1700579;82;25909;-83
2021/10/18 10:59:24;;;;;;;7.17;4.15;;;;;;;11.93;73.24;101391.16;1717038;82;27486;-84
2021/10/18 11:02:09;;;;;;;5.05;4.37;;;;;;;12.02;73.90;101383.89;1708384;82;25871;-82
2021/10/18 11:04:40;;;;;;;6.95;4.62;;;;;;;12.09;72.78;101391.58;1733568;81;25922;-85
2021/10/18 11:07:18;;;;;;;6.17;4.15;;;;;;;12.11;72.89;101383.67;1658775;81;25673;-84
2021/10/18 11:09:53;;;;;;;6.95;3.77;;;;;;;12.23;73.76;101384.12;1684119;83;25879;-83
2021/10/18 11:12:30;;;;;;;6.58;3.58;;;;;;;12.37;73.43;101370.74;1691352;82;27475;-83
2021/10/18 11:15:06;;;;;;;4.08;3.15;;;;;;;12.56;72.68;101372.59;1742236;82;25519;-84
2021/10/18 11:17:36;;;;;;;4.10;3.10;;;;;;;12.71;72.48;101368.94;1683194;83;25369;-83
2021/10/18 11:20:11;;;;;;;5.83;2.83;;;;;;;12.82;71.73;101361.78;1698896;83;25846;-83
2021/10/18 11:22:49;;;;;;;3.45;2.10;;;;;;;12.87;69.27;101366.08;1718291;82;25843;-84
2021/10/18 11:25:35;;;;;;;3.92;2.65;;;;;;;12.92;69.20;101357.47;1736747;82;27503;-84
2021/10/18 11:28:04;;;;;;;4.25;2.30;;;;;;;12.95;67.97;101348.55;1703530;82;25815;-83
2021/10/18 11:30:34;;;;;;;5.90;2.60;;;;;;;12.96;68.78;101357.43;1722704;82;25842;-84
2021/10/18 11:33:06;;;;;;;6.80;2.35;;;;;;;13.03;69.54;101359.22;1729050;82;25830;-84
2021/10/18 11:35:34;;;;;;;4.40;2.80;;;;;;;13.17;69.24;101364.32;1722199;82;25885;-83
2021/10/18 11:38:09;;;;;;;2.92;2.15;;;;;;;13.26;69.14;101367.76;1681960;82;27483;-83
2021/10/18 11:40:47;;;;;;;5.10;2.37;;;;;;;13.38;69.13;101369.80;1700084;82;25865;-84
2021/10/18 11:43:22;;;;;;;5.72;2.25;;;;;;;13.50;68.89;101372.33;1698564;82;25429;-83
2021/10/18 11:45:52;;;;;;;3.55;1.90;;;;;;;13.56;66.85;101379.65;1713478;82;25858;-83
2021/10/18 11:48:26;;;;;;;4.72;2.35;;;;;;;13.56;67.64;101376.95;1676161;82;25330;-83
2021/10/18 11:50:58;;;;;;;3.67;1.72;;;;;;;13.56;67.15;101376.11;1699543;81;27542;-84
2021/10/18 11:53:28;;;;;;;5.45;2.02;;;;;;;13.59;67.76;101373.91;1696679;82;26389;-83
2021/10/18 11:55:59;;;;;;;2.07;1.83;;;;;;;13.66;67.37;101374.83;1693171;83;26440;-83
2021/10/18 11:58:32;;;;;;;4.70;1.98;;;;;;;13.73;66.60;101366.81;1664652;82;26460;-83
2021/10/18 12:01:09;;;;;;;3.47;2.40;;;;;;;13.78;66.95;101369.28;1694280;83;25796;-84
2021/10/18 12:03:37;;;;;;;3.08;2.00;;;;;;;13.86;66.08;101369.66;1703543;82;27470;-84
2021/10/18 12:06:08;;;;;;;6.83;2.25;;;;;;;13.88;66.32;101367.62;1702463;82;25870;-83
2021/10/18 12:08:38;;;;;;;2.30;1.60;;;;;;;13.93;65.93;101371.94;1671035;83;25919;-83
2021/10/18 12:11:08;;;;;;;2.60;1.30;;;;;;;13.96;64.46;101372.07;1698193;82;27292;-83
2021/10/18 12:13:40;;;;;;;3.02;2.10;;;;;;;13.97;64.78;101371.03;1702564;82;25978;-83
2021/10/18 12:16:20;;;;;;;2.22;1.50;;;;;;;13.98;64.79;101374.06;1651836;83;27369;-84
2021/10/18 12:18:55;;;;;;;3.45;1.85;;;;;;;14.01;63.19;101370.46;1692083;82;25793;-84
2021/10/18 12:21:39;;;;;;;4.47;2.20;;;;;;;13.96;62.80;101370.22;1688032;81;25956;-83
2021/10/18 12:24:06;;;;;;;4.10;2.27;;;;;;;14.01;62.90;101368.30;1726164;81;26061;-84
2021/10/18 12:26:55;;;;;;;2.30;1.63;;;;;;;13.98;60.26;101361.44;1707132;82;26638;-84
2021/10/18 12:29:23;;;;;;;5.70;2.08;;;;;;;13.89;60.21;101365.26;1681340;82;27985;-84
2021/10/18 12:31:53;;;;;;;2.45;1.42;;;;;;;13.79;61.63;101365.55;1694713;83;26481;-84
2021/10/18 12:34:26;;;;;;;3.50;2.60;;;;;;;13.82;62.12;101369.22;1679785;82;25719;-83